Time,TemperatureF,DewpointF,PressureIn,WindDirection,WindDirectionDegrees,WindSpeedMPH,WindSpeedGustMPH,Humidity,HourlyPrecipIn,Conditions,Clouds,dailyrainin,SoftwareType,DateUTC
2013-09-29 00:01:00,66.0,62.0,30.10,ENE,61,13.0,17.0,87,0.00,,---,0.00,VWS V14.01,2013-09-29 04:01:00,
2013-09-29 00:02:00,65.9,61.6,30.10,NE,55,13.0,17.0,86,0.00,,---,0.00,VWS V14.01,2013-09-29 04:02:00,
2013-09-29 00:07:00,65.9,61.9,30.10,East,82,13.0,17.0,87,0.00,,---,0.00,VWS V14.01,2013-09-29 04:07:00,
2013-09-29 00:12:00,65.8,61.8,30.10,ENE,57,7.0,18.0,87,0.00,,---,0.00,VWS V14.01,2013-09-29 04:12:00,
2013-09-29 00:17:00,65.7,61.7,30.10,NE,49,12.0,18.0,87,0.00,,---,0.00,VWS V14.01,2013-09-29 04:17:00,
2013-09-29 00:22:00,65.6,62.0,30.10,ENE,71,14.0,18.0,88,0.00,,---,0.00,VWS V14.01,2013-09-29 04:22:00,
2013-09-29 00:27:00,65.5,61.5,30.10,NE,43,11.0,18.0,87,0.00,,---,0.00,VWS V14.01,2013-09-29 04:27:00,
2013-09-29 00:32:00,65.5,61.5,30.10,NE,51,13.0,16.0,87,0.00,,---,0.00,VWS V14.01,2013-09-29 04:32:00,
2013-09-29 00:37:00,65.5,61.5,30.10,East,81,10.0,16.0,87,0.00,,---,0.00,VWS V14.01,2013-09-29 04:37:00,
2013-09-29 00:42:00,65.5,61.9,30.10,ENE,61,11.0,16.0,88,0.00,,---,0.00,VWS V14.01,2013-09-29 04:42:00,
2013-09-29 00:47:00,65.4,61.8,30.10,NE,51,13.0,16.0,88,0.00,,---,0.00,VWS V14.01,2013-09-29 04:47:00,
2013-09-29 00:52:00,65.2,61.6,30.09,NE,47,11.0,16.0,88,0.00,,---,0.00,VWS V14.01,2013-09-29 04:52:00,
2013-09-29 00:57:00,64.8,61.2,30.09,NE,47,10.0,11.0,88,0.00,,---,0.00,VWS V14.01,2013-09-29 04:57:00,
2013-09-29 01:02:00,64.1,60.8,30.09,NNE,30,5.0,12.0,89,0.00,,---,0.00,VWS V14.01,2013-09-29 05:02:00,
2013-09-29 01:08:00,63.6,60.6,30.09,NNE,19,9.0,12.0,90,0.00,,---,0.00,VWS V14.01,2013-09-29 05:08:00,
2013-09-29 01:13:00,63.3,60.6,30.09,NNE,26,5.0,12.0,91,0.00,,---,0.00,VWS V14.01,2013-09-29 05:13:00,
2013-09-29 01:18:00,63.2,60.5,30.09,NNE,17,6.0,12.0,91,0.00,,---,0.00,VWS V14.01,2013-09-29 05:18:00,
2013-09-29 01:23:00,63.1,60.4,30.09,NE,36,6.0,12.0,91,0.00,,---,0.00,VWS V14.01,2013-09-29 05:23:00,
2013-09-29 01:28:00,62.9,60.2,30.09,NNE,22,10.0,11.0,91,0.00,,---,0.00,VWS V14.01,2013-09-29 05:28:00,
2013-09-29 01:33:00,62.7,60.0,30.09,NNE,27,9.0,11.0,91,0.00,,---,0.00,VWS V14.01,2013-09-29 05:33:00,
2013-09-29 01:38:00,62.6,60.2,30.09,NNE,23,7.0,11.0,92,0.00,,---,0.00,VWS V14.01,2013-09-29 05:38:00,
2013-09-29 01:43:00,62.5,60.2,30.09,North,9,9.0,11.0,92,0.00,,---,0.00,VWS V14.01,2013-09-29 05:43:00,
2013-09-29 01:48:00,62.3,60.0,30.09,North,5,8.0,11.0,92,0.00,,---,0.00,VWS V14.01,2013-09-29 05:48:00,
2013-09-29 01:53:00,62.0,60.0,30.09,NNE,17,11.0,11.0,93,0.00,,---,0.00,VWS V14.01,2013-09-29 05:53:00,
2013-09-29 01:58:00,61.6,59.6,30.09,NNE,33,7.0,11.0,93,0.00,,---,0.00,VWS V14.01,2013-09-29 05:58:00,
2013-09-29 02:03:00,61.7,59.7,30.09,NNE,28,6.0,12.0,93,0.00,,---,0.00,VWS V14.01,2013-09-29 06:03:00,
2013-09-29 02:08:00,61.9,59.9,30.08,NNE,21,11.0,12.0,93,0.00,,---,0.00,VWS V14.01,2013-09-29 06:08:00,
2013-09-29 02:13:00,62.0,60.0,30.08,NNE,31,11.0,13.0,93,0.00,,---,0.00,VWS V14.01,2013-09-29 06:13:00,
2013-09-29 02:18:00,62.1,60.1,30.08,NE,34,12.0,14.0,93,0.00,,---,0.00,VWS V14.01,2013-09-29 06:18:00,
2013-09-29 02:24:00,61.9,59.9,30.08,NNE,18,10.0,14.0,93,0.00,,---,0.00,VWS V14.01,2013-09-29 06:24:00,
2013-09-29 02:29:00,61.7,59.7,30.08,North,360,12.0,12.0,93,0.00,,---,0.00,VWS V14.01,2013-09-29 06:29:00,
2013-09-29 02:34:00,61.6,59.6,30.08,NE,36,11.0,13.0,93,0.00,,---,0.00,VWS V14.01,2013-09-29 06:34:00,
2013-09-29 02:39:00,61.6,59.6,30.08,NNE,17,7.0,13.0,93,0.00,,---,0.00,VWS V14.01,2013-09-29 06:39:00,
2013-09-29 02:44:00,61.8,60.1,30.08,NNE,19,11.0,13.0,94,0.00,,---,0.00,VWS V14.01,2013-09-29 06:44:00,
2013-09-29 02:49:00,61.5,59.5,30.08,NNE,28,11.0,16.0,93,0.00,,---,0.00,VWS V14.01,2013-09-29 06:49:00,
2013-09-29 02:54:00,61.4,59.1,30.08,NNE,13,12.0,16.0,92,0.00,,---,0.00,VWS V14.01,2013-09-29 06:54:00,
2013-09-29 02:59:00,61.5,59.8,30.07,NNE,15,13.0,14.0,94,0.00,,---,0.00,VWS V14.01,2013-09-29 06:59:00,
2013-09-29 03:04:00,61.6,59.9,30.07,NNE,17,13.0,15.0,94,0.00,,---,0.00,VWS V14.01,2013-09-29 07:04:00,
2013-09-29 03:10:00,61.5,59.5,30.07,NNE,16,15.0,16.0,93,0.00,,---,0.00,VWS V14.01,2013-09-29 07:10:00,
2013-09-29 03:15:00,61.3,59.3,30.07,NNE,32,12.0,17.0,93,0.00,,---,0.00,VWS V14.01,2013-09-29 07:15:00,
2013-09-29 03:20:00,61.4,60.0,30.07,North,11,14.0,17.0,95,0.00,,---,0.00,VWS V14.01,2013-09-29 07:20:00,
2013-09-29 03:25:00,61.3,59.3,30.07,NNE,29,15.0,18.0,93,0.00,,---,0.00,VWS V14.01,2013-09-29 07:25:00,
2013-09-29 03:30:00,61.3,59.6,30.07,ENE,61,11.0,16.0,94,0.00,,---,0.00,VWS V14.01,2013-09-29 07:30:00,
2013-09-29 03:35:00,61.3,59.3,30.07,NNE,20,11.0,16.0,93,0.00,,---,0.00,VWS V14.01,2013-09-29 07:35:00,
2013-09-29 03:40:00,61.7,60.0,30.07,NNE,25,13.0,16.0,94,0.00,,---,0.00,VWS V14.01,2013-09-29 07:40:00,
2013-09-29 03:45:00,61.5,59.8,30.07,NNE,16,10.0,16.0,94,0.00,,---,0.00,VWS V14.01,2013-09-29 07:45:00,
2013-09-29 03:50:00,61.4,59.4,30.06,NNE,17,12.0,16.0,93,0.00,,---,0.00,VWS V14.01,2013-09-29 07:50:00,
2013-09-29 03:55:00,61.3,59.6,30.06,NNE,27,14.0,16.0,94,0.00,,---,0.00,VWS V14.01,2013-09-29 07:55:00,
2013-09-29 04:00:00,61.2,59.5,30.06,NNE,32,12.0,15.0,94,0.00,,---,0.00,VWS V14.01,2013-09-29 08:00:00,
2013-09-29 04:05:00,61.1,59.1,30.06,NNE,22,12.0,16.0,93,0.00,,---,0.00,VWS V14.01,2013-09-29 08:05:00,
2013-09-29 04:10:00,61.0,59.3,30.06,NNE,14,12.0,16.0,94,0.00,,---,0.00,VWS V14.01,2013-09-29 08:10:00,
2013-09-29 04:15:00,60.8,59.1,30.06,NNE,13,12.0,16.0,94,0.00,,---,0.00,VWS V14.01,2013-09-29 08:15:00,
2013-09-29 04:21:00,60.9,59.5,30.06,NNE,18,14.0,16.0,95,0.00,,---,0.00,VWS V14.01,2013-09-29 08:21:00,
2013-09-29 04:26:00,60.8,59.1,30.06,North,5,11.0,16.0,94,0.00,,---,0.00,VWS V14.01,2013-09-29 08:26:00,
2013-09-29 04:31:00,60.6,58.9,30.06,North,11,12.0,14.0,94,0.00,,---,0.00,VWS V14.01,2013-09-29 08:31:00,
2013-09-29 04:36:00,60.5,59.1,30.06,North,360,10.0,14.0,95,0.00,,---,0.00,VWS V14.01,2013-09-29 08:36:00,
2013-09-29 04:41:00,60.3,58.9,30.06,North,360,11.0,14.0,95,0.00,,---,0.00,VWS V14.01,2013-09-29 08:41:00,
2013-09-29 04:46:00,60.4,59.0,30.06,North,360,14.0,15.0,95,0.00,,---,0.00,VWS V14.01,2013-09-29 08:46:00,
2013-09-29 04:51:00,60.4,59.0,30.06,North,355,12.0,15.0,95,0.00,,---,0.00,VWS V14.01,2013-09-29 08:51:00,
2013-09-29 04:56:00,60.3,58.9,30.06,North,355,12.0,16.0,95,0.00,,---,0.00,VWS V14.01,2013-09-29 08:56:00,
2013-09-29 05:01:00,60.2,58.8,30.06,North,360,16.0,16.0,95,0.00,,---,0.00,VWS V14.01,2013-09-29 09:01:00,
2013-09-29 05:06:00,60.1,58.7,30.06,North,355,11.0,16.0,95,0.00,,---,0.00,VWS V14.01,2013-09-29 09:06:00,
2013-09-29 05:11:00,60.0,58.6,30.06,North,360,13.0,16.0,95,0.00,,---,0.00,VWS V14.01,2013-09-29 09:11:00,
2013-09-29 05:16:00,60.1,58.7,30.06,NNE,17,12.0,16.0,95,0.00,,---,0.00,VWS V14.01,2013-09-29 09:16:00,
2013-09-29 05:21:00,59.8,58.4,30.06,North,5,14.0,16.0,95,0.00,,---,0.00,VWS V14.01,2013-09-29 09:21:00,
2013-09-29 05:26:00,59.6,58.2,30.06,North,5,13.0,16.0,95,0.00,,---,0.00,VWS V14.01,2013-09-29 09:26:00,
2013-09-29 05:31:00,59.7,58.6,30.06,North,355,12.0,15.0,96,0.00,,---,0.00,VWS V14.01,2013-09-29 09:31:00,
2013-09-29 05:37:00,59.5,58.1,30.06,North,10,13.0,15.0,95,0.00,,---,0.00,VWS V14.01,2013-09-29 09:37:00,
2013-09-29 05:42:00,59.4,58.0,30.06,North,11,10.0,15.0,95,0.00,,---,0.00,VWS V14.01,2013-09-29 09:42:00,
2013-09-29 05:47:00,59.4,58.0,30.07,North,5,15.0,15.0,95,0.00,,---,0.00,VWS V14.01,2013-09-29 09:47:00,
2013-09-29 05:52:00,59.5,58.1,30.06,North,5,13.0,15.0,95,0.00,,---,0.00,VWS V14.01,2013-09-29 09:52:00,
2013-09-29 05:57:00,59.5,58.1,30.06,North,5,14.0,18.0,95,0.00,,---,0.00,VWS V14.01,2013-09-29 09:57:00,
2013-09-29 06:02:00,59.5,58.1,30.06,North,5,12.0,16.0,95,0.00,,---,0.00,VWS V14.01,2013-09-29 10:02:00,
2013-09-29 06:07:00,59.5,58.1,30.06,NNE,19,14.0,18.0,95,0.00,,---,0.00,VWS V14.01,2013-09-29 10:07:00,
2013-09-29 06:12:00,59.6,58.2,30.06,North,360,12.0,18.0,95,0.00,,---,0.00,VWS V14.01,2013-09-29 10:12:00,
2013-09-29 06:17:00,59.6,58.2,30.06,North,11,12.0,18.0,95,0.00,,---,0.00,VWS V14.01,2013-09-29 10:17:00,
2013-09-29 06:22:00,59.7,58.6,30.06,North,11,13.0,18.0,96,0.00,,---,0.00,VWS V14.01,2013-09-29 10:22:00,
2013-09-29 06:27:00,59.7,58.3,30.07,North,355,13.0,13.0,95,0.00,,---,0.00,VWS V14.01,2013-09-29 10:27:00,
2013-09-29 06:32:00,59.6,58.2,30.07,North,10,12.0,14.0,95,0.00,,---,0.00,VWS V14.01,2013-09-29 10:32:00,
2013-09-29 06:37:00,59.4,58.0,30.07,North,355,14.0,14.0,95,0.00,,---,0.00,VWS V14.01,2013-09-29 10:37:00,
2013-09-29 06:43:00,59.4,58.0,30.07,North,351,10.0,14.0,95,0.00,,---,0.00,VWS V14.01,2013-09-29 10:43:00,
2013-09-29 06:48:00,59.3,57.9,30.07,North,11,7.0,16.0,95,0.00,,---,0.00,VWS V14.01,2013-09-29 10:48:00,
2013-09-29 06:53:00,59.1,57.7,30.07,North,5,13.0,16.0,95,0.00,,---,0.00,VWS V14.01,2013-09-29 10:53:00,
2013-09-29 06:58:00,59.3,57.9,30.07,North,9,13.0,14.0,95,0.00,,---,0.00,VWS V14.01,2013-09-29 10:58:00,
2013-09-29 07:03:00,59.4,58.0,30.07,North,5,14.0,15.0,95,0.00,,---,0.00,VWS V14.01,2013-09-29 11:03:00,
2013-09-29 07:08:00,59.4,58.3,30.07,North,10,15.0,16.0,96,0.00,,---,0.00,VWS V14.01,2013-09-29 11:08:00,
2013-09-29 07:13:00,59.3,57.9,30.07,North,5,12.0,16.0,95,0.00,,---,0.00,VWS V14.01,2013-09-29 11:13:00,
2013-09-29 07:18:00,59.5,58.1,30.07,NNE,15,12.0,16.0,95,0.00,,---,0.00,VWS V14.01,2013-09-29 11:18:00,
2013-09-29 07:23:00,59.3,58.2,30.07,North,360,14.0,17.0,96,0.00,,---,0.00,VWS V14.01,2013-09-29 11:23:00,
2013-09-29 07:28:00,59.4,58.0,30.07,North,360,17.0,17.0,95,0.00,,---,0.00,VWS V14.01,2013-09-29 11:28:00,
2013-09-29 07:33:00,59.4,58.0,30.07,North,355,13.0,18.0,95,0.00,,---,0.00,VWS V14.01,2013-09-29 11:33:00,
2013-09-29 07:38:00,59.3,57.9,30.08,North,5,14.0,18.0,95,0.00,,---,0.00,VWS V14.01,2013-09-29 11:38:00,
2013-09-29 07:43:00,59.3,57.6,30.08,NNE,12,13.0,18.0,94,0.00,,---,0.00,VWS V14.01,2013-09-29 11:43:00,
2013-09-29 07:48:00,59.4,58.0,30.08,North,355,15.0,18.0,95,0.00,,---,0.00,VWS V14.01,2013-09-29 11:48:00,
2013-09-29 07:54:00,59.4,58.0,30.08,North,355,14.0,18.0,95,0.00,,---,0.00,VWS V14.01,2013-09-29 11:54:00,
2013-09-29 07:59:00,59.6,58.5,30.08,North,355,13.0,15.0,96,0.00,,---,0.00,VWS V14.01,2013-09-29 11:59:00,
2013-09-29 08:04:00,59.4,58.0,30.08,North,5,14.0,18.0,95,0.00,,---,0.00,VWS V14.01,2013-09-29 12:04:00,
2013-09-29 08:09:00,59.3,57.9,30.08,North,5,14.0,18.0,95,0.00,,---,0.00,VWS V14.01,2013-09-29 12:09:00,
2013-09-29 08:14:00,59.2,57.8,30.09,NNE,14,10.0,18.0,95,0.00,,---,0.00,VWS V14.01,2013-09-29 12:14:00,
2013-09-29 08:19:00,59.2,57.8,30.08,North,5,16.0,18.0,95,0.00,,---,0.00,VWS V14.01,2013-09-29 12:19:00,
2013-09-29 08:24:00,59.4,58.3,30.09,North,355,13.0,18.0,96,0.00,,---,0.00,VWS V14.01,2013-09-29 12:24:00,
2013-09-29 08:29:00,59.6,57.9,30.09,North,11,14.0,16.0,94,0.00,,---,0.00,VWS V14.01,2013-09-29 12:29:00,
2013-09-29 08:34:00,59.9,58.2,30.09,North,5,12.0,16.0,94,0.00,,---,0.00,VWS V14.01,2013-09-29 12:34:00,
2013-09-29 08:39:00,60.1,58.4,30.09,North,5,13.0,16.0,94,0.00,,---,0.00,VWS V14.01,2013-09-29 12:39:00,
2013-09-29 08:44:00,60.6,58.9,30.09,NNE,14,18.0,18.0,94,0.00,,---,0.00,VWS V14.01,2013-09-29 12:44:00,
2013-09-29 08:49:00,60.8,58.8,30.09,NNE,22,16.0,18.0,93,0.00,,---,0.00,VWS V14.01,2013-09-29 12:49:00,
2013-09-29 08:54:00,60.7,58.4,30.08,NNE,14,15.0,18.0,92,0.00,,---,0.00,VWS V14.01,2013-09-29 12:54:00,
2013-09-29 09:00:00,60.7,58.7,30.08,NNE,13,13.0,15.0,93,0.00,,---,0.00,VWS V14.01,2013-09-29 13:00:00,
2013-09-29 09:05:00,60.8,59.1,30.08,North,5,14.0,17.0,94,0.00,,---,0.00,VWS V14.01,2013-09-29 13:05:00,
2013-09-29 09:10:00,61.2,59.5,30.08,North,360,15.0,17.0,94,0.00,,---,0.00,VWS V14.01,2013-09-29 13:10:00,
2013-09-29 09:15:00,61.6,59.6,30.08,North,5,13.0,17.0,93,0.00,,---,0.00,VWS V14.01,2013-09-29 13:15:00,
2013-09-29 09:20:00,61.9,59.9,30.08,North,355,19.0,19.0,93,0.00,,---,0.00,VWS V14.01,2013-09-29 13:20:00,
2013-09-29 09:25:00,62.0,59.3,30.08,North,355,16.0,20.0,91,0.00,,---,0.00,VWS V14.01,2013-09-29 13:25:00,
2013-09-29 09:30:00,62.2,59.5,30.08,North,5,17.0,18.0,91,0.00,,---,0.00,VWS V14.01,2013-09-29 13:30:00,
2013-09-29 09:35:00,62.4,59.7,30.08,North,5,15.0,19.0,91,0.00,,---,0.00,VWS V14.01,2013-09-29 13:35:00,
2013-09-29 09:40:00,62.6,59.9,30.07,North,360,16.0,20.0,91,0.00,,---,0.00,VWS V14.01,2013-09-29 13:40:00,
2013-09-29 09:45:00,63.1,60.4,30.07,North,5,16.0,20.0,91,0.00,,---,0.00,VWS V14.01,2013-09-29 13:45:00,
2013-09-29 09:50:00,63.7,60.4,30.07,North,355,15.0,20.0,89,0.00,,---,0.00,VWS V14.01,2013-09-29 13:50:00,
2013-09-29 09:55:00,64.0,60.7,30.08,NNE,16,13.0,20.0,89,0.00,,---,0.00,VWS V14.01,2013-09-29 13:55:00,
2013-09-29 10:00:00,64.3,61.0,30.08,North,5,15.0,16.0,89,0.00,,---,0.00,VWS V14.01,2013-09-29 14:00:00,
2013-09-29 10:05:00,64.7,61.1,30.08,North,355,12.0,16.0,88,0.00,,---,0.00,VWS V14.01,2013-09-29 14:05:00,
2013-09-29 10:11:00,65.1,61.1,30.08,NNE,12,16.0,19.0,87,0.00,,---,0.00,VWS V14.01,2013-09-29 14:11:00,
2013-09-29 10:16:00,65.2,60.9,30.07,NNE,28,16.0,19.0,86,0.00,,---,0.00,VWS V14.01,2013-09-29 14:16:00,
2013-09-29 10:21:00,65.5,61.5,30.07,NNE,22,12.0,19.0,87,0.00,,---,0.00,VWS V14.01,2013-09-29 14:21:00,
2013-09-29 10:26:00,65.9,61.6,30.07,NNE,21,14.0,19.0,86,0.00,,---,0.00,VWS V14.01,2013-09-29 14:26:00,
2013-09-29 10:31:00,66.1,61.8,30.07,NE,48,12.0,14.0,86,0.00,,---,0.00,VWS V14.01,2013-09-29 14:31:00,
2013-09-29 10:36:00,66.5,61.5,30.07,North,5,13.0,16.0,84,0.00,,---,0.00,VWS V14.01,2013-09-29 14:36:00,
2013-09-29 10:41:00,66.8,61.8,30.08,NNE,20,11.0,16.0,84,0.00,,---,0.00,VWS V14.01,2013-09-29 14:41:00,
2013-09-29 10:46:00,67.1,62.5,30.08,North,360,12.0,16.0,85,0.00,,---,0.00,VWS V14.01,2013-09-29 14:46:00,
2013-09-29 10:51:00,67.5,62.2,30.07,NNE,28,14.0,16.0,83,0.00,,---,0.00,VWS V14.01,2013-09-29 14:51:00,
2013-09-29 10:56:00,67.6,62.3,30.07,NNE,29,10.0,16.0,83,0.00,,---,0.00,VWS V14.01,2013-09-29 14:56:00,
2013-09-29 11:01:00,68.0,62.7,30.07,NNW,347,11.0,16.0,83,0.00,,---,0.00,VWS V14.01,2013-09-29 15:01:00,
2013-09-29 11:06:00,68.0,62.3,30.07,North,355,11.0,16.0,82,0.00,,---,0.00,VWS V14.01,2013-09-29 15:06:00,
2013-09-29 11:11:00,67.9,62.5,30.07,North,355,12.0,16.0,83,0.00,,---,0.00,VWS V14.01,2013-09-29 15:11:00,
2013-09-29 11:16:00,68.3,62.6,30.07,North,351,15.0,17.0,82,0.00,,---,0.00,VWS V14.01,2013-09-29 15:16:00,
2013-09-29 11:22:00,68.4,62.7,30.07,North,5,15.0,17.0,82,0.00,,---,0.00,VWS V14.01,2013-09-29 15:22:00,
2013-09-29 11:27:00,68.5,62.1,30.07,NNE,12,14.0,17.0,80,0.00,,---,0.00,VWS V14.01,2013-09-29 15:27:00,
2013-09-29 11:32:00,68.7,62.6,30.07,NE,41,5.0,17.0,81,0.00,,---,0.00,VWS V14.01,2013-09-29 15:32:00,
2013-09-29 11:37:00,68.7,62.6,30.07,NE,34,14.0,20.0,81,0.00,,---,0.00,VWS V14.01,2013-09-29 15:37:00,
2013-09-29 11:42:00,68.8,62.7,30.06,NE,36,16.0,20.0,81,0.00,,---,0.00,VWS V14.01,2013-09-29 15:42:00,
2013-09-29 11:47:00,69.1,63.0,30.06,NE,37,16.0,20.0,81,0.00,,---,0.00,VWS V14.01,2013-09-29 15:47:00,
2013-09-29 11:52:00,69.1,62.3,30.06,North,355,15.0,20.0,79,0.00,,---,0.00,VWS V14.01,2013-09-29 15:52:00,
2013-09-29 11:57:00,69.4,63.3,30.05,NNE,13,14.0,20.0,81,0.00,,---,0.00,VWS V14.01,2013-09-29 15:57:00,
2013-09-29 12:02:00,69.5,63.1,30.06,NNE,22,18.0,18.0,80,0.00,,---,0.00,VWS V14.01,2013-09-29 16:02:00,
2013-09-29 12:07:00,69.5,62.7,30.06,NNE,17,14.0,19.0,79,0.00,,---,0.00,VWS V14.01,2013-09-29 16:07:00,
2013-09-29 12:12:00,69.6,62.8,30.06,NNW,348,14.0,19.0,79,0.00,,---,0.00,VWS V14.01,2013-09-29 16:12:00,
2013-09-29 12:17:00,69.7,62.9,30.05,NNE,13,11.0,22.0,79,0.00,,---,0.00,VWS V14.01,2013-09-29 16:17:00,
2013-09-29 12:22:00,69.9,62.4,30.05,North,355,16.0,22.0,77,0.00,,---,0.00,VWS V14.01,2013-09-29 16:22:00,
2013-09-29 12:27:00,69.9,62.7,30.05,NE,36,10.0,15.0,78,0.00,,---,0.00,VWS V14.01,2013-09-29 16:27:00,
2013-09-29 12:33:00,70.4,63.6,30.05,NE,46,14.0,15.0,79,0.00,,---,0.00,VWS V14.01,2013-09-29 16:33:00,
2013-09-29 12:38:00,70.4,62.5,30.05,North,9,11.0,15.0,76,0.00,,---,0.00,VWS V14.01,2013-09-29 16:38:00,
2013-09-29 12:43:00,70.7,62.0,30.05,North,11,15.0,18.0,74,0.00,,---,0.00,VWS V14.01,2013-09-29 16:43:00,
2013-09-29 12:48:00,70.7,62.4,30.05,NNE,13,12.0,18.0,75,0.00,,---,0.00,VWS V14.01,2013-09-29 16:48:00,
2013-09-29 12:53:00,70.7,62.0,30.05,North,5,13.0,18.0,74,0.00,,---,0.00,VWS V14.01,2013-09-29 16:53:00,
2013-09-29 12:58:00,70.7,62.0,30.05,NNE,24,13.0,16.0,74,0.00,,---,0.00,VWS V14.01,2013-09-29 16:58:00,
2013-09-29 13:03:00,70.8,63.2,30.05,NE,45,13.0,16.0,77,0.00,,---,0.00,VWS V14.01,2013-09-29 17:03:00,
2013-09-29 13:08:00,70.7,61.6,30.05,NNE,32,13.0,16.0,73,0.00,,---,0.00,VWS V14.01,2013-09-29 17:08:00,
2013-09-29 13:13:00,70.7,62.4,30.05,North,11,10.0,16.0,75,0.00,,---,0.00,VWS V14.01,2013-09-29 17:13:00,
2013-09-29 13:18:00,70.6,62.3,30.04,North,355,13.0,16.0,75,0.00,,---,0.00,VWS V14.01,2013-09-29 17:18:00,
2013-09-29 13:23:00,70.7,63.1,30.04,NNE,15,12.0,16.0,77,0.00,,---,0.00,VWS V14.01,2013-09-29 17:23:00,
2013-09-29 13:28:00,70.9,63.0,30.04,North,355,12.0,12.0,76,0.00,,---,0.00,VWS V14.01,2013-09-29 17:28:00,
2013-09-29 13:33:00,70.9,63.3,30.04,North,5,13.0,14.0,77,0.00,,---,0.00,VWS V14.01,2013-09-29 17:33:00,
2013-09-29 13:39:00,70.9,62.6,30.04,North,355,12.0,16.0,75,0.00,,---,0.00,VWS V14.01,2013-09-29 17:39:00,
2013-09-29 13:44:00,70.9,62.6,30.04,NE,49,11.0,16.0,75,0.00,,---,0.00,VWS V14.01,2013-09-29 17:44:00,
2013-09-29 13:49:00,71.1,62.8,30.03,NNE,28,9.0,16.0,75,0.00,,---,0.00,VWS V14.01,2013-09-29 17:49:00,
2013-09-29 13:54:00,71.3,62.2,30.03,NNE,14,9.0,16.0,73,0.00,,---,0.00,VWS V14.01,2013-09-29 17:54:00,
2013-09-29 13:59:00,71.5,63.2,30.03,NNE,16,10.0,10.0,75,0.00,,---,0.00,VWS V14.01,2013-09-29 17:59:00,
2013-09-29 14:04:00,71.5,62.8,30.03,NNE,33,11.0,13.0,74,0.00,,---,0.00,VWS V14.01,2013-09-29 18:04:00,
2013-09-29 14:09:00,71.7,62.6,30.03,NNE,30,11.0,13.0,73,0.00,,---,0.00,VWS V14.01,2013-09-29 18:09:00,
2013-09-29 14:14:00,71.9,62.0,30.02,NE,38,7.0,13.0,71,0.00,,---,0.00,VWS V14.01,2013-09-29 18:14:00,
2013-09-29 14:19:00,72.2,62.3,30.02,NNE,33,9.0,13.0,71,0.00,,---,0.00,VWS V14.01,2013-09-29 18:19:00,
2013-09-29 14:24:00,72.6,62.7,30.02,NE,39,9.0,13.0,71,0.00,,---,0.00,VWS V14.01,2013-09-29 18:24:00,
2013-09-29 14:29:00,72.5,63.8,30.01,ENE,59,5.0,10.0,74,0.00,,---,0.00,VWS V14.01,2013-09-29 18:29:00,
2013-09-29 14:34:00,72.6,61.9,30.00,NNE,22,11.0,12.0,69,0.00,,---,0.00,VWS V14.01,2013-09-29 18:34:00,
2013-09-29 14:40:00,72.8,62.5,30.00,NE,50,7.0,12.0,70,0.00,,---,0.00,VWS V14.01,2013-09-29 18:40:00,
2013-09-29 14:45:00,72.9,62.1,30.00,NE,46,4.0,12.0,69,0.00,,---,0.00,VWS V14.01,2013-09-29 18:45:00,
2013-09-29 14:50:00,73.2,62.4,30.00,ENE,71,5.0,12.0,69,0.00,,---,0.00,VWS V14.01,2013-09-29 18:50:00,
2013-09-29 14:55:00,73.6,62.8,30.00,NNE,33,9.0,12.0,69,0.00,,---,0.00,VWS V14.01,2013-09-29 18:55:00,
2013-09-29 15:00:00,73.7,62.5,30.00,ENE,67,6.0,11.0,68,0.00,,---,0.00,VWS V14.01,2013-09-29 19:00:00,
2013-09-29 15:05:00,73.9,61.8,30.00,NE,41,6.0,11.0,66,0.00,,---,0.00,VWS V14.01,2013-09-29 19:05:00,
2013-09-29 15:10:00,74.0,62.4,30.00,ENE,69,5.0,11.0,67,0.00,,---,0.00,VWS V14.01,2013-09-29 19:10:00,
2013-09-29 15:15:00,74.5,62.8,29.99,ESE,113,13.0,13.0,67,0.00,,---,0.00,VWS V14.01,2013-09-29 19:15:00,
2013-09-29 15:20:00,75.4,63.7,29.99,ESE,114,3.0,14.0,67,0.00,,---,0.00,VWS V14.01,2013-09-29 19:20:00,
2013-09-29 15:25:00,75.8,63.6,29.99,ESE,120,8.0,14.0,66,0.00,,---,0.00,VWS V14.01,2013-09-29 19:25:00,
2013-09-29 15:30:00,75.5,63.8,29.99,ESE,117,4.0,12.0,67,0.00,,---,0.00,VWS V14.01,2013-09-29 19:30:00,
2013-09-29 15:35:00,75.0,63.7,29.99,ESE,115,5.0,13.0,68,0.00,,---,0.00,VWS V14.01,2013-09-29 19:35:00,
2013-09-29 15:40:00,74.5,63.7,29.99,East,93,5.0,13.0,69,0.00,,---,0.00,VWS V14.01,2013-09-29 19:40:00,
2013-09-29 15:45:00,74.4,63.2,29.99,SE,124,4.0,13.0,68,0.00,,---,0.00,VWS V14.01,2013-09-29 19:45:00,
2013-09-29 15:48:00,74.6,63.8,29.99,ESE,102,6.0,13.0,69,0.00,,---,0.00,VWS V14.01,2013-09-29 19:48:00,
2013-09-29 15:53:00,75.1,63.8,29.98,ESE,106,10.0,13.0,68,0.00,,---,0.00,VWS V14.01,2013-09-29 19:53:00,
2013-09-29 15:58:00,75.3,64.0,29.98,SE,128,4.0,7.0,68,0.00,,---,0.00,VWS V14.01,2013-09-29 19:58:00,
2013-09-29 16:03:00,75.5,64.2,29.98,East,99,4.0,8.0,68,0.00,,---,0.00,VWS V14.01,2013-09-29 20:03:00,
2013-09-29 16:08:00,75.6,63.5,29.98,SE,130,0.0,8.0,66,0.00,,---,0.00,VWS V14.01,2013-09-29 20:08:00,
2013-09-29 16:13:00,75.6,62.1,29.98,East,101,1.0,8.0,63,0.00,,---,0.00,VWS V14.01,2013-09-29 20:13:00,
2013-09-29 16:18:00,75.8,61.9,29.98,ESE,115,4.0,8.0,62,0.00,,---,0.00,VWS V14.01,2013-09-29 20:18:00,
2013-09-29 16:23:00,75.8,61.9,29.99,SE,124,1.0,8.0,62,0.00,,---,0.00,VWS V14.01,2013-09-29 20:23:00,
2013-09-29 16:28:00,76.1,63.5,29.99,SSE,161,3.0,6.0,65,0.00,,---,0.00,VWS V14.01,2013-09-29 20:28:00,
2013-09-29 16:33:00,76.3,63.2,29.99,SE,126,3.0,10.0,64,0.00,,---,0.00,VWS V14.01,2013-09-29 20:33:00,
2013-09-29 16:38:00,76.2,63.1,29.99,SE,126,3.0,10.0,64,0.00,,---,0.00,VWS V14.01,2013-09-29 20:38:00,
2013-09-29 16:43:00,76.1,63.5,29.99,SE,132,3.0,10.0,65,0.00,,---,0.00,VWS V14.01,2013-09-29 20:43:00,
2013-09-29 16:49:00,76.1,63.5,29.98,SE,130,2.0,10.0,65,0.00,,---,0.00,VWS V14.01,2013-09-29 20:49:00,
2013-09-29 16:54:00,75.8,62.8,29.99,SE,132,1.0,10.0,64,0.00,,---,0.00,VWS V14.01,2013-09-29 20:54:00,
2013-09-29 16:59:00,75.7,63.1,29.99,SE,132,0.0,2.0,65,0.00,,---,0.00,VWS V14.01,2013-09-29 20:59:00,
2013-09-29 17:04:00,76.0,63.4,29.98,SE,132,0.0,3.0,65,0.00,,---,0.00,VWS V14.01,2013-09-29 21:04:00,
2013-09-29 17:09:00,76.3,62.8,29.98,ESE,120,2.0,4.0,63,0.00,,---,0.00,VWS V14.01,2013-09-29 21:09:00,
2013-09-29 17:14:00,76.3,63.2,29.98,ESE,123,3.0,4.0,64,0.00,,---,0.00,VWS V14.01,2013-09-29 21:14:00,
2013-09-29 17:19:00,76.5,64.3,29.98,SSE,148,1.0,5.0,66,0.00,,---,0.00,VWS V14.01,2013-09-29 21:19:00,
2013-09-29 17:24:00,76.7,63.2,29.98,SE,146,0.0,5.0,63,0.00,,---,0.00,VWS V14.01,2013-09-29 21:24:00,
2013-09-29 17:29:00,77.2,63.6,29.99,SSE,152,0.0,2.0,63,0.00,,---,0.00,VWS V14.01,2013-09-29 21:29:00,
2013-09-29 17:34:00,77.4,63.4,29.98,SSE,157,0.0,2.0,62,0.00,,---,0.00,VWS V14.01,2013-09-29 21:34:00,
2013-09-29 17:39:00,76.9,62.4,29.98,SE,124,0.0,3.0,61,0.00,,---,0.00,VWS V14.01,2013-09-29 21:39:00,
2013-09-29 17:44:00,76.4,62.4,29.98,SE,128,3.0,3.0,62,0.00,,---,0.00,VWS V14.01,2013-09-29 21:44:00,
2013-09-29 17:50:00,76.1,63.0,29.98,ESE,123,0.0,4.0,64,0.00,,---,0.00,VWS V14.01,2013-09-29 21:50:00,
2013-09-29 17:55:00,75.8,63.2,29.98,SE,130,1.0,6.0,65,0.00,,---,0.00,VWS V14.01,2013-09-29 21:55:00,
2013-09-29 18:00:00,75.2,63.1,29.98,SE,134,2.0,4.0,66,0.00,,---,0.00,VWS V14.01,2013-09-29 22:00:00,
2013-09-29 18:05:00,74.8,62.7,29.98,ESE,117,1.0,5.0,66,0.00,,---,0.00,VWS V14.01,2013-09-29 22:05:00,
2013-09-29 18:10:00,74.7,63.0,29.99,ESE,112,3.0,5.0,67,0.00,,---,0.00,VWS V14.01,2013-09-29 22:10:00,
2013-09-29 18:15:00,74.7,64.3,29.99,SE,131,2.0,5.0,70,0.00,,---,0.00,VWS V14.01,2013-09-29 22:15:00,
2013-09-29 18:20:00,74.4,64.0,29.99,ESE,121,4.0,5.0,70,0.00,,---,0.00,VWS V14.01,2013-09-29 22:20:00,
2013-09-29 18:25:00,74.1,64.1,29.99,SE,124,2.0,5.0,71,0.00,,---,0.00,VWS V14.01,2013-09-29 22:25:00,
2013-09-29 18:30:00,74.0,63.6,29.99,SE,125,1.0,4.0,70,0.00,,---,0.00,VWS V14.01,2013-09-29 22:30:00,
2013-09-29 18:35:00,74.2,63.8,29.99,SE,125,0.0,4.0,70,0.00,,---,0.00,VWS V14.01,2013-09-29 22:35:00,
2013-09-29 18:40:00,74.3,63.5,30.00,SE,125,0.0,4.0,69,0.00,,---,0.00,VWS V14.01,2013-09-29 22:40:00,
2013-09-29 18:45:00,74.3,63.9,30.00,SE,125,0.0,4.0,70,0.00,,---,0.00,VWS V14.01,2013-09-29 22:45:00,
2013-09-29 18:50:00,74.1,64.1,30.00,SE,125,0.0,4.0,71,0.00,,---,0.00,VWS V14.01,2013-09-29 22:50:00,
2013-09-29 18:56:00,74.0,64.0,30.00,SE,125,0.0,4.0,71,0.00,,---,0.00,VWS V14.01,2013-09-29 22:56:00,
2013-09-29 19:01:00,73.8,63.8,30.00,SE,125,0.0,0.0,71,0.00,,---,0.00,VWS V14.01,2013-09-29 23:01:00,
2013-09-29 19:06:00,73.7,63.7,30.00,SE,125,0.0,0.0,71,0.00,,---,0.00,VWS V14.01,2013-09-29 23:06:00,
2013-09-29 19:11:00,73.5,63.9,30.00,SE,125,0.0,0.0,72,0.00,,---,0.00,VWS V14.01,2013-09-29 23:11:00,
2013-09-29 19:16:00,73.4,64.2,30.00,SE,125,0.0,1.0,73,0.00,,---,0.00,VWS V14.01,2013-09-29 23:16:00,
2013-09-29 19:21:00,73.3,64.1,30.00,SE,125,0.0,1.0,73,0.00,,---,0.00,VWS V14.01,2013-09-29 23:21:00,
2013-09-29 19:26:00,73.1,63.9,30.00,SE,125,0.0,1.0,73,0.00,,---,0.00,VWS V14.01,2013-09-29 23:26:00,
2013-09-29 19:31:00,73.1,63.9,30.00,SE,125,0.0,0.0,73,0.00,,---,0.00,VWS V14.01,2013-09-29 23:31:00,
2013-09-29 19:36:00,73.0,63.8,30.00,SE,125,0.0,0.0,73,0.00,,---,0.00,VWS V14.01,2013-09-29 23:36:00,
2013-09-29 19:41:00,72.9,65.3,30.00,SE,125,1.0,2.0,77,0.00,,---,0.00,VWS V14.01,2013-09-29 23:41:00,
2013-09-29 19:46:00,72.7,65.8,30.00,NW,323,5.0,6.0,79,0.00,,---,0.00,VWS V14.01,2013-09-29 23:46:00,
2013-09-29 19:51:00,72.0,65.5,30.00,NW,315,5.0,6.0,80,0.00,,---,0.00,VWS V14.01,2013-09-29 23:51:00,
2013-09-29 19:56:00,71.6,65.1,30.00,NW,310,4.0,6.0,80,0.00,,---,0.00,VWS V14.01,2013-09-29 23:56:00,
2013-09-29 20:01:00,71.5,65.4,30.00,NW,309,5.0,5.0,81,0.00,,---,0.00,VWS V14.01,2013-09-30 00:01:00,
2013-09-29 20:06:00,71.5,65.4,30.00,NW,307,4.0,5.0,81,0.00,,---,0.00,VWS V14.01,2013-09-30 00:06:00,
2013-09-29 20:12:00,71.5,65.7,30.00,NW,307,5.0,6.0,82,0.00,,---,0.00,VWS V14.01,2013-09-30 00:12:00,
2013-09-29 20:17:00,71.3,65.2,30.01,NW,323,5.0,7.0,81,0.00,,---,0.00,VWS V14.01,2013-09-30 00:17:00,
2013-09-29 20:22:00,71.1,65.0,30.01,NW,317,6.0,7.0,81,0.00,,---,0.00,VWS V14.01,2013-09-30 00:22:00,
2013-09-29 20:27:00,70.8,64.7,30.01,NNW,331,5.0,7.0,81,0.00,,---,0.00,VWS V14.01,2013-09-30 00:27:00,
2013-09-29 20:32:00,70.7,64.6,30.01,NNW,334,6.0,6.0,81,0.00,,---,0.00,VWS V14.01,2013-09-30 00:32:00,
2013-09-29 20:37:00,70.5,64.4,30.01,NNW,342,6.0,7.0,81,0.00,,---,0.00,VWS V14.01,2013-09-30 00:37:00,
2013-09-29 20:42:00,70.4,64.3,30.01,NNW,333,5.0,8.0,81,0.00,,---,0.00,VWS V14.01,2013-09-30 00:42:00,
2013-09-29 20:47:00,70.3,64.2,30.01,NNW,333,4.0,8.0,81,0.00,,---,0.00,VWS V14.01,2013-09-30 00:47:00,
2013-09-29 20:52:00,70.2,64.1,30.01,NNW,346,4.0,8.0,81,0.00,,---,0.00,VWS V14.01,2013-09-30 00:52:00,
2013-09-29 20:57:00,70.1,64.0,30.01,NNW,346,4.0,4.0,81,0.00,,---,0.00,VWS V14.01,2013-09-30 00:57:00,
2013-09-29 21:02:00,70.0,64.3,30.01,NNW,338,5.0,6.0,82,0.00,,---,0.00,VWS V14.01,2013-09-30 01:02:00,
2013-09-29 21:07:00,69.9,64.2,30.01,NNW,340,5.0,6.0,82,0.00,,---,0.00,VWS V14.01,2013-09-30 01:07:00,
2013-09-29 21:12:00,69.8,64.1,30.01,NNW,346,6.0,7.0,82,0.00,,---,0.00,VWS V14.01,2013-09-30 01:12:00,
2013-09-29 21:17:00,69.7,64.3,30.01,NNW,343,3.0,7.0,83,0.00,,---,0.00,VWS V14.01,2013-09-30 01:17:00,
2013-09-29 21:23:00,69.6,63.9,30.01,NNW,340,5.0,7.0,82,0.00,,---,0.00,VWS V14.01,2013-09-30 01:23:00,
2013-09-29 21:28:00,69.4,63.7,30.01,NNW,336,5.0,5.0,82,0.00,,---,0.00,VWS V14.01,2013-09-30 01:28:00,
2013-09-29 21:33:00,69.1,63.7,30.01,NNW,333,3.0,5.0,83,0.00,,---,0.00,VWS V14.01,2013-09-30 01:33:00,
2013-09-29 21:38:00,68.9,63.5,30.01,NNW,330,6.0,6.0,83,0.00,,---,0.00,VWS V14.01,2013-09-30 01:38:00,
2013-09-29 21:43:00,68.6,63.2,30.01,NW,324,4.0,7.0,83,0.00,,---,0.00,VWS V14.01,2013-09-30 01:43:00,
2013-09-29 21:48:00,68.4,63.0,30.01,NNW,329,2.0,7.0,83,0.00,,---,0.00,VWS V14.01,2013-09-30 01:48:00,
2013-09-29 21:53:00,68.2,63.2,30.01,NNW,331,4.0,7.0,84,0.00,,---,0.00,VWS V14.01,2013-09-30 01:53:00,
2013-09-29 21:58:00,68.0,63.3,30.01,NNW,329,3.0,4.0,85,0.00,,---,0.00,VWS V14.01,2013-09-30 01:58:00,
2013-09-29 22:03:00,67.9,62.9,30.01,NNW,342,4.0,5.0,84,0.00,,---,0.00,VWS V14.01,2013-09-30 02:03:00,
2013-09-29 22:08:00,67.9,62.5,30.01,North,355,6.0,6.0,83,0.00,,---,0.00,VWS V14.01,2013-09-30 02:08:00,
2013-09-29 22:13:00,67.6,62.6,30.01,North,355,6.0,7.0,84,0.00,,---,0.00,VWS V14.01,2013-09-30 02:13:00,
2013-09-29 22:18:00,67.4,62.4,30.01,North,350,5.0,7.0,84,0.00,,---,0.00,VWS V14.01,2013-09-30 02:18:00,
2013-09-29 22:24:00,67.2,62.5,30.01,NNE,16,5.0,7.0,85,0.00,,---,0.00,VWS V14.01,2013-09-30 02:24:00,
2013-09-29 22:29:00,66.9,62.6,30.01,NNE,21,4.0,7.0,86,0.00,,---,0.00,VWS V14.01,2013-09-30 02:29:00,
2013-09-29 22:34:00,66.8,62.2,30.00,NNE,19,5.0,7.0,85,0.00,,---,0.00,VWS V14.01,2013-09-30 02:34:00,
2013-09-29 22:39:00,66.7,62.4,30.01,NNE,19,5.0,9.0,86,0.00,,---,0.00,VWS V14.01,2013-09-30 02:39:00,
2013-09-29 22:44:00,66.7,62.4,30.01,NNE,33,7.0,9.0,86,0.00,,---,0.00,VWS V14.01,2013-09-30 02:44:00,
2013-09-29 22:49:00,66.6,62.3,30.01,NNE,28,5.0,9.0,86,0.00,,---,0.00,VWS V14.01,2013-09-30 02:49:00,
2013-09-29 22:54:00,66.5,62.8,30.01,NNE,25,6.0,10.0,88,0.00,,---,0.00,VWS V14.01,2013-09-30 02:54:00,
2013-09-29 22:59:00,66.5,62.5,30.00,NE,41,7.0,9.0,87,0.00,,---,0.00,VWS V14.01,2013-09-30 02:59:00,
2013-09-29 23:04:00,66.3,62.6,30.01,NE,38,4.0,9.0,88,0.00,,---,0.00,VWS V14.01,2013-09-30 03:04:00,
2013-09-29 23:09:00,66.2,62.9,30.01,NE,45,6.0,9.0,89,0.00,,---,0.00,VWS V14.01,2013-09-30 03:09:00,
2013-09-29 23:14:00,66.5,63.2,30.01,NE,40,7.0,9.0,89,0.00,,---,0.00,VWS V14.01,2013-09-30 03:14:00,
2013-09-29 23:19:00,66.6,63.3,30.01,NE,47,7.0,9.0,89,0.00,,---,0.00,VWS V14.01,2013-09-30 03:19:00,
2013-09-29 23:24:00,66.8,63.8,30.01,ENE,73,5.0,10.0,90,0.00,,---,0.00,VWS V14.01,2013-09-30 03:24:00,
2013-09-29 23:29:00,67.2,63.8,30.01,ENE,69,6.0,10.0,89,0.00,,---,0.00,VWS V14.01,2013-09-30 03:29:00,
2013-09-29 23:35:00,67.5,63.8,30.01,ENE,71,6.0,13.0,88,0.00,,---,0.00,VWS V14.01,2013-09-30 03:35:00,
2013-09-29 23:40:00,67.5,63.5,30.00,East,92,10.0,13.0,87,0.00,,---,0.00,VWS V14.01,2013-09-30 03:40:00,
2013-09-29 23:45:00,67.7,63.4,30.01,ENE,72,9.0,14.0,86,0.00,,---,0.00,VWS V14.01,2013-09-30 03:45:00,
2013-09-29 23:50:00,67.9,63.2,30.00,East,82,11.0,14.0,85,0.00,,---,0.00,VWS V14.01,2013-09-30 03:50:00,
2013-09-29 23:55:00,67.8,63.1,30.00,East,92,13.0,14.0,85,0.00,,---,0.00,VWS V14.01,2013-09-30 03:55:00,